Etusivu
METAR-TAF:

METAR-TAF

Lentoasemat :

Mönchengladbach, Saksa

Leveyspiiri: 51-13-49N, Pituuspiiri: 006-30-16E, korkeus merenpinnasta: 38 m

Tämänhetkinen sää

Tämä raportti tehtiin 44 minuuttia sitten, kello 18.50 UTC
Tuuli 6 kn etelästä/kaakosta, vaihdellen idän/kaakon ja etelän välillä
Lämpötila 3°C
Kosteus 93%
Ilmanpaine 1001 hPa
Näkyvyys 10 km tai enemmän
ei pilviä alle 1500 m:ssä eikä cumulonimbus-pilviä

METAR: EDLN 121850Z 15006KT 120V180 CAVOK 03/02 Q1001

Aika: 20:34 (19:34 UTC)

Sääennuste

Tämä raportti tehtiin 2 tuntia ja 34 minuuttia sitten, kello 17.00 UTC
Ennuste voimassa 12. päivästä klo 18 UTC - 13. päivään klo 03 UTC
Tuuli 7 kn etelästä
Näkyvyys 10 km tai enemmän
Muutamia pilviä 3500 ft:n korkeudessa
Ajoittain
13. päivästä klo 01 UTC - 13. päivään klo 03 UTC
Hajonneita pilviä 2000 ft:n korkeudessa, Kasvava cumulus-pilvi.
vesikuuroja

TAF: EDLN 121700Z 1218/1303 19007KT 9999 FEW035 TEMPO 1301/1303 SHRA BKN020TCU

Säähavainnot ja -ennusteet yli 4000 lentoasemalta (METAR- ja TAF-raportit).

Käytössä olevat sääasemat on merkitty karttaan keltaisilla ja punaisilla pisteillä.

Aseta hiiri pisteen päälle nähdäksesi sääaseman nimen.

Klikkaa sitten nähdäksesi säähavainnot ja -ennusteet.

Kartan vaihtaminen: klikkaa mustalla rastilla varustettuja vihreitä pisteitä, niin voit zoomata sisään; viivalla varustettua vihreää pistettä, niin voit zoomata ulos tai vihreitä nuolia, niin pääset viereisille kartoille.


METAR-TAF: